createdAt,value
2023-04-16T00:01:10.328Z,100720.69
2023-04-16T00:03:38.233Z,100727.09
2023-04-16T00:06:06.606Z,100730.44
2023-04-16T00:08:35.583Z,100722.50
2023-04-16T00:11:03.392Z,100715.69
2023-04-16T00:13:31.120Z,100724.16
2023-04-16T00:16:00.350Z,100722.50
2023-04-16T00:18:28.063Z,100722.50
2023-04-16T00:20:55.926Z,100725.16
2023-04-16T00:23:25.169Z,100725.44
2023-04-16T00:25:53.617Z,100717.50
2023-04-16T00:28:21.348Z,100719.31
2023-04-16T00:30:49.145Z,100715.84
2023-04-16T00:33:18.291Z,100719.19
2023-04-16T00:35:46.565Z,100713.22
2023-04-16T00:38:15.124Z,100714.03
2023-04-16T00:40:43.023Z,100710.41
2023-04-16T00:43:10.873Z,100715.41
2023-04-16T00:45:39.565Z,100713.59
2023-04-16T00:48:07.436Z,100712.56
2023-04-16T00:50:36.651Z,100721.53
2023-04-16T00:53:04.434Z,100727.94
2023-04-16T00:55:32.398Z,100720.00
2023-04-16T00:58:00.630Z,100720.16
2023-04-16T01:00:28.410Z,100728.22
2023-04-16T01:02:56.926Z,100728.38
2023-04-16T01:05:24.778Z,100722.94
2023-04-16T01:07:53.891Z,100726.41
2023-04-16T01:10:21.661Z,100734.81
2023-04-16T01:12:49.425Z,100732.03
2023-04-16T01:15:17.268Z,100734.50
2023-04-16T01:17:47.129Z,100738.31
2023-04-16T01:20:15.009Z,100738.31
2023-04-16T01:22:44.108Z,100742.91
2023-04-16T01:25:15.784Z,100740.25
2023-04-16T01:27:43.664Z,100747.22
2023-04-16T01:30:11.983Z,100745.53
2023-04-16T01:32:59.607Z,100750.97
2023-04-16T01:35:27.558Z,100752.50
2023-04-16T01:37:56.682Z,100754.44
2023-04-16T01:40:24.572Z,100753.31
2023-04-16T01:42:52.310Z,100756.94
2023-04-16T01:45:20.316Z,100754.44
2023-04-16T01:47:48.173Z,100755.44
2023-04-16T01:50:15.955Z,100754.78
2023-04-16T01:52:43.672Z,100761.41
2023-04-16T01:55:13.031Z,100758.06
2023-04-16T01:57:40.825Z,100758.59
2023-04-16T02:00:09.693Z,100761.56
2023-04-16T02:02:46.640Z,100763.91
2023-04-16T02:05:19.716Z,100776.97
2023-04-16T02:07:47.775Z,100766.22
2023-04-16T02:10:16.970Z,100769.88
2023-04-16T02:12:45.476Z,100768.03
2023-04-16T02:15:15.739Z,100765.72
2023-04-16T02:17:43.723Z,100780.59
2023-04-16T02:20:12.644Z,100769.19
2023-04-16T02:22:51.127Z,100771.00
2023-04-16T02:25:23.120Z,100773.63
2023-04-16T02:27:52.173Z,100772.25
2023-04-16T02:30:27.600Z,100777.72
2023-04-16T02:32:55.789Z,100777.56
2023-04-16T02:35:23.580Z,100777.72
2023-04-16T02:37:51.366Z,100770.63
2023-04-16T02:40:19.332Z,100779.34
2023-04-16T02:42:48.974Z,100782.84
2023-04-16T02:45:17.056Z,100782.00
2023-04-16T02:47:44.845Z,100779.53
2023-04-16T02:50:12.987Z,100782.31
2023-04-16T02:52:40.739Z,100781.50
2023-04-16T02:55:09.612Z,100790.41
2023-04-16T02:57:37.476Z,100784.59
2023-04-16T03:00:08.000Z,100791.38
2023-04-16T03:02:36.154Z,100788.22
2023-04-16T03:05:04.295Z,100786.41
2023-04-16T03:07:32.029Z,100786.56
2023-04-16T03:10:00.294Z,100778.41
2023-04-16T03:12:28.052Z,100779.91
2023-04-16T03:14:55.916Z,100782.72
2023-04-16T03:17:25.311Z,100775.78
2023-04-16T03:19:53.091Z,100784.81
2023-04-16T03:22:20.846Z,100787.75
2023-04-16T03:24:48.596Z,100787.47
2023-04-16T03:27:16.368Z,100793.38
2023-04-16T03:29:45.472Z,100792.00
2023-04-16T03:32:13.576Z,100794.34
2023-04-16T03:34:42.795Z,100788.91
2023-04-16T03:37:11.948Z,100790.72
2023-04-16T03:39:40.323Z,100794.47
2023-04-16T03:42:08.097Z,100797.44
2023-04-16T03:44:36.208Z,100793.81
2023-04-16T03:47:03.966Z,100800.22
2023-04-16T03:49:31.751Z,100804.81
2023-04-16T03:52:01.520Z,100798.72
2023-04-16T03:54:29.464Z,100792.91
2023-04-16T03:57:07.769Z,100807.94
2023-04-16T03:59:35.735Z,100801.03
2023-04-16T04:02:03.513Z,100814.00
2023-04-16T04:04:32.748Z,100806.91
2023-04-16T04:07:02.000Z,100815.97
2023-04-16T04:09:29.735Z,100815.72
2023-04-16T04:11:57.482Z,100814.97
2023-04-16T04:14:25.359Z,100821.16
2023-04-16T04:16:53.082Z,100819.66
2023-04-16T04:19:20.847Z,100834.06
2023-04-16T04:21:49.367Z,100836.00
2023-04-16T04:24:19.966Z,100834.50
2023-04-16T04:26:47.873Z,100839.78
2023-04-16T04:29:15.649Z,100837.16
2023-04-16T04:31:43.539Z,100842.13
2023-04-16T04:34:11.424Z,100849.53
2023-04-16T04:36:39.450Z,100847.72
2023-04-16T04:39:07.478Z,100846.19
2023-04-16T04:41:36.802Z,100845.50
2023-04-16T04:44:05.062Z,100854.56
2023-04-16T04:46:32.753Z,100857.22
2023-04-16T04:49:00.663Z,100850.44
2023-04-16T04:51:28.999Z,100860.16
2023-04-16T04:53:57.888Z,100852.94
2023-04-16T04:56:25.631Z,100867.69
2023-04-16T04:58:54.790Z,100866.16
2023-04-16T05:01:22.649Z,100877.00
2023-04-16T05:03:50.495Z,100875.88
2023-04-16T05:06:18.434Z,100874.50
2023-04-16T05:08:46.201Z,100867.28
2023-04-16T05:11:13.974Z,100885.44
2023-04-16T05:13:41.773Z,100883.50
2023-04-16T05:16:10.930Z,100878.22
2023-04-16T05:18:38.731Z,100884.47
2023-04-16T05:21:06.825Z,100886.28
2023-04-16T05:23:34.567Z,100892.41
2023-04-16T05:26:02.311Z,100898.22
2023-04-16T05:28:31.102Z,100902.81
2023-04-16T05:30:58.972Z,100900.03
2023-04-16T05:33:28.201Z,100912.41
2023-04-16T05:35:55.877Z,100908.47
2023-04-16T05:38:23.633Z,100911.97
2023-04-16T05:40:51.312Z,100920.19
2023-04-16T05:43:19.189Z,100925.72
2023-04-16T05:45:46.913Z,100922.50
2023-04-16T05:48:14.774Z,100933.06
2023-04-16T05:50:43.921Z,100932.22
2023-04-16T05:53:13.959Z,100931.56
2023-04-16T05:55:41.737Z,100938.91
2023-04-16T05:58:09.478Z,100933.63
2023-04-16T06:00:37.360Z,100923.00
2023-04-16T06:03:05.497Z,100936.66
2023-04-16T06:05:33.454Z,100941.06
2023-04-16T06:08:02.597Z,100945.78
2023-04-16T06:10:30.369Z,100947.06
2023-04-16T06:12:58.153Z,100940.00
2023-04-16T06:15:25.838Z,100945.00
2023-04-16T06:17:53.647Z,100933.88
2023-04-16T06:20:21.462Z,100939.03
2023-04-16T06:22:49.229Z,100941.09
2023-04-16T06:25:18.516Z,100948.16
2023-04-16T06:27:46.243Z,100947.19
2023-04-16T06:30:14.691Z,100955.81
2023-04-16T06:32:43.308Z,100945.13
2023-04-16T06:35:11.309Z,100959.81
2023-04-16T06:37:39.259Z,100957.31
2023-04-16T06:40:07.954Z,100957.19
2023-04-16T06:42:37.134Z,100964.38
2023-04-16T06:45:05.448Z,100972.16
2023-04-16T06:47:33.208Z,100971.69
2023-04-16T06:50:00.940Z,100977.91
2023-04-16T06:52:29.757Z,100973.84
2023-04-16T06:54:57.812Z,100976.00
2023-04-16T06:57:25.797Z,100981.59
2023-04-16T06:59:54.954Z,100976.16
2023-04-16T07:02:22.849Z,100979.63
2023-04-16T07:04:52.287Z,100980.06
2023-04-16T07:07:20.055Z,100984.91
2023-04-16T07:09:47.759Z,100981.81
2023-04-16T07:12:15.567Z,100980.19
2023-04-16T07:14:48.162Z,100977.22
2023-04-16T07:17:17.345Z,100980.09
2023-04-16T07:19:45.298Z,100989.25
2023-04-16T07:22:13.055Z,100988.50
2023-04-16T07:24:40.786Z,100987.75
2023-04-16T07:27:08.548Z,101003.31
2023-04-16T07:29:36.325Z,101003.16
2023-04-16T07:32:04.145Z,100998.69
2023-04-16T07:34:33.246Z,101004.06
2023-04-16T07:37:00.974Z,101005.13
2023-04-16T07:39:28.750Z,101003.84
2023-04-16T07:41:56.537Z,101014.34
2023-04-16T07:44:24.333Z,101018.44
2023-04-16T07:46:52.059Z,101023.25
2023-04-16T07:49:20.068Z,101027.94
2023-04-16T07:51:49.207Z,101029.16
2023-04-16T07:54:17.087Z,101025.22
2023-04-16T07:56:44.847Z,101019.97
2023-04-16T07:59:21.872Z,101023.75
2023-04-16T08:01:51.704Z,101020.53
2023-04-16T08:04:24.590Z,101021.94
2023-04-16T08:06:55.182Z,101027.28
2023-04-16T08:09:24.941Z,101020.09
2023-04-16T08:11:52.765Z,101029.69
2023-04-16T08:14:21.196Z,101035.69
2023-04-16T08:16:48.890Z,101031.13
2023-04-16T08:19:16.677Z,101036.06
2023-04-16T08:21:44.583Z,101039.34
2023-04-16T08:24:13.793Z,101043.38
2023-04-16T08:26:41.589Z,101046.59
2023-04-16T08:29:09.568Z,101047.41
2023-04-16T08:31:37.664Z,101058.94
2023-04-16T08:34:05.729Z,101051.53
2023-04-16T08:36:33.460Z,101056.81
2023-04-16T08:39:01.215Z,101058.31
2023-04-16T08:41:33.239Z,101058.13
2023-04-16T08:44:05.933Z,101059.97
2023-04-16T08:46:37.954Z,101053.31
2023-04-16T08:49:09.504Z,101059.66
2023-04-16T08:51:40.384Z,101069.56
2023-04-16T08:54:13.150Z,101061.31
2023-04-16T08:56:43.396Z,101070.25
2023-04-16T08:59:11.845Z,101065.78
2023-04-16T09:01:41.787Z,101066.66
2023-04-16T09:04:10.823Z,101067.66
2023-04-16T09:06:41.366Z,101071.63
2023-04-16T09:09:10.594Z,101060.81
2023-04-16T09:11:39.375Z,101067.44
2023-04-16T09:14:11.341Z,101061.28
2023-04-16T09:16:40.460Z,101062.25
2023-04-16T09:19:08.540Z,101066.41
2023-04-16T09:21:37.100Z,101067.09
2023-04-16T09:24:05.384Z,101072.22
2023-04-16T09:26:33.751Z,101070.94
2023-04-16T09:29:01.768Z,101078.09
2023-04-16T09:31:30.977Z,101075.91
2023-04-16T09:34:03.764Z,101075.28
2023-04-16T09:36:32.452Z,101089.19
2023-04-16T09:39:00.996Z,101084.16
2023-04-16T09:41:30.555Z,101081.66
2023-04-16T09:43:59.931Z,101095.13
2023-04-16T09:46:32.870Z,101095.63
2023-04-16T09:49:06.310Z,101096.13
2023-04-16T09:51:38.302Z,101092.63
2023-04-16T09:54:06.815Z,101096.47
2023-04-16T09:56:34.940Z,101100.25
2023-04-16T09:59:02.672Z,101108.38
2023-04-16T10:01:33.121Z,101102.78
2023-04-16T10:04:01.034Z,101107.25
2023-04-16T10:06:31.160Z,101107.59
2023-04-16T10:08:59.001Z,101114.38
2023-04-16T10:11:27.095Z,101117.72
2023-04-16T10:13:54.977Z,101113.88
2023-04-16T10:16:23.781Z,101125.56
2023-04-16T10:18:54.413Z,101124.66
2023-04-16T10:21:22.597Z,101127.78
2023-04-16T10:23:52.523Z,101129.94
2023-04-16T10:26:22.625Z,101118.81
2023-04-16T10:28:51.294Z,101126.56
2023-04-16T10:31:19.145Z,101126.09
2023-04-16T10:33:47.422Z,101128.81
2023-04-16T10:36:18.400Z,101135.19
2023-04-16T10:38:47.490Z,101134.53
2023-04-16T10:41:15.537Z,101136.63
2023-04-16T10:43:45.472Z,101136.00
2023-04-16T10:46:19.610Z,101140.88
2023-04-16T10:48:50.439Z,101133.63
2023-04-16T10:51:28.739Z,101135.31
2023-04-16T10:53:57.410Z,101142.50
2023-04-16T10:56:26.163Z,101144.09
2023-04-16T10:58:56.038Z,101149.34
2023-04-16T11:01:32.139Z,101151.91
2023-04-16T11:04:02.765Z,101144.94
2023-04-16T11:06:32.827Z,101147.22
2023-04-16T11:09:00.826Z,101145.03
2023-04-16T11:11:38.513Z,101146.41
2023-04-16T11:14:07.098Z,101142.50
2023-04-16T11:16:34.834Z,101146.63
2023-04-16T11:19:03.015Z,101144.34
2023-04-16T11:21:32.587Z,101150.41
2023-04-16T11:24:00.367Z,101144.94
2023-04-16T11:26:30.865Z,101144.59
2023-04-16T11:29:00.233Z,101147.44
2023-04-16T11:31:28.152Z,101147.44
2023-04-16T11:33:57.865Z,101147.44
2023-04-16T11:36:27.738Z,101148.44
2023-04-16T11:39:04.503Z,101153.44
2023-04-16T11:41:32.435Z,101155.25
2023-04-16T11:44:00.383Z,101156.56
2023-04-16T11:46:39.445Z,101163.44
2023-04-16T11:49:07.509Z,101164.78
2023-04-16T11:51:40.975Z,101158.38
2023-04-16T11:54:11.874Z,101154.03
2023-04-16T11:56:46.431Z,101161.94
2023-04-16T11:59:15.679Z,101154.72
2023-04-16T12:01:48.082Z,101162.91
2023-04-16T12:04:17.047Z,101160.09
2023-04-16T12:07:06.730Z,101154.84
2023-04-16T12:09:39.574Z,101164.69
2023-04-16T12:12:26.400Z,101162.38
2023-04-16T12:14:54.556Z,101159.25
2023-04-16T12:17:22.567Z,101171.81
2023-04-16T12:19:52.184Z,101161.81
2023-04-16T12:22:28.382Z,101159.34
2023-04-16T12:25:05.130Z,101159.13
2023-04-16T12:27:47.567Z,101159.50
2023-04-16T12:30:17.025Z,101166.50
2023-04-16T12:32:46.310Z,101167.69
2023-04-16T12:35:14.620Z,101166.16
2023-04-16T12:37:42.434Z,101173.13
2023-04-16T12:40:12.229Z,101174.13
2023-04-16T12:42:39.998Z,101171.22
2023-04-16T12:45:08.450Z,101176.22
2023-04-16T12:47:36.195Z,101170.47
2023-04-16T12:50:04.065Z,101173.50
2023-04-16T12:52:31.874Z,101183.69
2023-04-16T12:54:59.786Z,101179.94
2023-04-16T12:57:29.453Z,101180.41
2023-04-16T12:59:57.493Z,101178.09
2023-04-16T13:02:26.009Z,101176.28
2023-04-16T13:04:55.057Z,101172.41
2023-04-16T13:07:24.098Z,101180.50
2023-04-16T13:09:51.997Z,101178.88
2023-04-16T13:12:19.750Z,101173.81
2023-04-16T13:14:48.864Z,101178.63
2023-04-16T13:17:16.756Z,101178.16
2023-04-16T13:19:45.194Z,101172.25
2023-04-16T13:22:12.994Z,101174.78
2023-04-16T13:24:40.830Z,101172.66
2023-04-16T13:27:08.958Z,101167.38
2023-04-16T13:29:37.458Z,101172.13
2023-04-16T13:32:07.308Z,101171.16
2023-04-16T13:34:35.201Z,101173.69
2023-04-16T13:37:02.963Z,101166.41
2023-04-16T13:39:30.649Z,101167.91
2023-04-16T13:41:58.423Z,101161.78
2023-04-16T13:44:26.337Z,101164.78
2023-04-16T13:46:54.191Z,101169.59
2023-04-16T13:49:23.656Z,101168.25
2023-04-16T13:51:51.521Z,101162.78
2023-04-16T13:54:19.314Z,101162.63
2023-04-16T13:56:47.189Z,101164.63
2023-04-16T13:59:16.639Z,101166.28
2023-04-16T14:01:44.469Z,101158.97
2023-04-16T14:04:12.236Z,101157.47
2023-04-16T14:06:41.465Z,101158.63
2023-04-16T14:09:10.749Z,101157.97
2023-04-16T14:11:38.877Z,101149.66
2023-04-16T14:14:06.783Z,101150.19
2023-04-16T14:16:34.827Z,101150.16
2023-04-16T14:19:02.669Z,101153.34
2023-04-16T14:21:31.598Z,101151.00
2023-04-16T14:24:00.796Z,101163.00
2023-04-16T14:26:28.609Z,101147.66
2023-04-16T14:28:56.446Z,101155.31
2023-04-16T14:31:24.250Z,101151.81
2023-04-16T14:33:52.014Z,101157.59
2023-04-16T14:36:20.423Z,101153.47
2023-04-16T14:38:48.723Z,101152.97
2023-04-16T14:41:17.826Z,101152.66
2023-04-16T14:43:45.597Z,101164.97
2023-04-16T14:46:13.451Z,101147.03
2023-04-16T14:48:41.366Z,101147.34
2023-04-16T14:51:09.680Z,101154.81
2023-04-16T14:53:37.993Z,101156.16
2023-04-16T14:56:06.423Z,101160.97
2023-04-16T14:58:37.848Z,101153.19
2023-04-16T15:01:06.921Z,101159.97
2023-04-16T15:03:34.803Z,101159.78
2023-04-16T15:06:03.063Z,101156.97
2023-04-16T15:08:31.366Z,101159.16
2023-04-16T15:10:59.211Z,101159.63
2023-04-16T15:13:33.516Z,101158.97
2023-04-16T15:16:02.801Z,101157.13
2023-04-16T15:18:30.661Z,101153.16
2023-04-16T15:20:58.918Z,101153.16
2023-04-16T15:23:26.726Z,101162.63
2023-04-16T15:25:54.495Z,101156.34
2023-04-16T15:28:22.272Z,101157.50
2023-04-16T15:30:50.018Z,101159.63
2023-04-16T15:33:21.877Z,101158.81
2023-04-16T15:35:51.455Z,101161.28
2023-04-16T15:38:21.011Z,101159.97
2023-04-16T15:40:49.063Z,101154.97
2023-04-16T15:43:16.962Z,101148.69
2023-04-16T15:45:44.798Z,101149.66
2023-04-16T15:48:12.645Z,101153.00
2023-04-16T15:50:41.882Z,101151.66
2023-04-16T15:53:09.684Z,101151.84
2023-04-16T15:55:37.473Z,101156.66
2023-04-16T15:58:05.620Z,101161.28
2023-04-16T16:00:33.418Z,101157.31
2023-04-16T16:03:01.295Z,101160.47
2023-04-16T16:05:29.159Z,101159.16
2023-04-16T16:07:58.698Z,101170.44
2023-04-16T16:10:26.569Z,101165.78
2023-04-16T16:12:54.505Z,101164.47
2023-04-16T16:15:22.252Z,101171.94
2023-04-16T16:17:50.036Z,101175.09
2023-04-16T16:20:17.797Z,101173.09
2023-04-16T16:22:47.555Z,101171.63
2023-04-16T16:25:17.222Z,101168.28
2023-04-16T16:27:44.915Z,101171.09
2023-04-16T16:30:13.643Z,101172.59
2023-04-16T16:32:43.730Z,101175.75
2023-04-16T16:35:12.058Z,101181.88
2023-04-16T16:37:39.885Z,101176.91
2023-04-16T16:40:08.783Z,101174.09
2023-04-16T16:42:37.918Z,101186.03
2023-04-16T16:45:06.415Z,101182.75
2023-04-16T16:47:34.527Z,101186.03
2023-04-16T16:50:03.181Z,101179.38
2023-04-16T16:52:32.056Z,101186.03
2023-04-16T16:54:59.756Z,101182.00
2023-04-16T16:57:27.566Z,101184.78
2023-04-16T16:59:56.638Z,101186.13
2023-04-16T17:02:24.674Z,101183.97
2023-04-16T17:04:52.860Z,101186.91
2023-04-16T17:07:20.827Z,101185.59
2023-04-16T17:09:48.576Z,101193.72
2023-04-16T17:12:17.699Z,101195.00
2023-04-16T17:14:45.867Z,101189.84
2023-04-16T17:17:14.908Z,101194.31
2023-04-16T17:19:42.755Z,101198.94
2023-04-16T17:22:10.716Z,101192.13
2023-04-16T17:24:38.506Z,101181.50
2023-04-16T17:27:06.392Z,101190.94
2023-04-16T17:29:34.155Z,101190.66
2023-04-16T17:32:01.993Z,101188.97
2023-04-16T17:34:31.143Z,101185.78
2023-04-16T17:36:58.852Z,101193.09
2023-04-16T17:39:26.667Z,101194.41
2023-04-16T17:41:58.286Z,101201.50
2023-04-16T17:44:27.956Z,101206.97
2023-04-16T17:46:55.786Z,101204.81
2023-04-16T17:49:23.484Z,101202.44
2023-04-16T17:51:53.620Z,101197.59
2023-04-16T17:54:21.391Z,101205.88
2023-04-16T17:56:49.166Z,101201.72
2023-04-16T17:59:16.907Z,101210.81
2023-04-16T18:01:45.446Z,101203.50
2023-04-16T18:04:13.596Z,101216.91
2023-04-16T18:06:41.949Z,101213.91
2023-04-16T18:09:12.022Z,101215.72
2023-04-16T18:11:39.815Z,101219.50
2023-04-16T18:14:09.930Z,101224.94
2023-04-16T18:16:37.907Z,101219.13
2023-04-16T18:19:05.862Z,101224.59
2023-04-16T18:21:33.897Z,101224.09
2023-04-16T18:24:03.415Z,101230.38
2023-04-16T18:26:35.717Z,101237.78
2023-04-16T18:29:04.122Z,101238.94
2023-04-16T18:31:31.917Z,101238.41
2023-04-16T18:33:59.770Z,101242.19
2023-04-16T18:36:27.609Z,101245.00
2023-04-16T18:41:27.119Z,101245.31
2023-04-16T18:43:56.294Z,101254.09
2023-04-16T18:46:24.307Z,101257.72
2023-04-16T18:48:52.128Z,101260.50
2023-04-16T18:51:19.902Z,101259.84
2023-04-16T18:53:47.606Z,101262.50
2023-04-16T18:56:15.440Z,101261.13
2023-04-16T18:58:43.260Z,101266.72
2023-04-16T19:01:13.923Z,101270.53
2023-04-16T19:03:41.765Z,101269.84
2023-04-16T19:06:09.654Z,101270.44
2023-04-16T19:08:37.412Z,101262.78
2023-04-16T19:11:05.175Z,101267.56
2023-04-16T19:13:33.079Z,101268.53
2023-04-16T19:16:02.311Z,101276.63
2023-04-16T19:18:31.574Z,101273.47
2023-04-16T19:21:02.391Z,101273.91
2023-04-16T19:23:30.315Z,101273.06
2023-04-16T19:26:01.474Z,101282.81
2023-04-16T19:28:29.311Z,101282.16
2023-04-16T19:30:57.097Z,101281.19
2023-04-16T19:33:24.823Z,101286.63
2023-04-16T19:35:53.926Z,101290.09
2023-04-16T19:38:21.765Z,101279.34
2023-04-16T19:40:49.950Z,101280.88
2023-04-16T19:43:17.675Z,101280.03
2023-04-16T19:45:46.028Z,101278.06
2023-04-16T19:48:14.399Z,101289.50
2023-04-16T19:50:43.120Z,101282.41
2023-04-16T19:53:12.947Z,101288.53
2023-04-16T19:55:40.866Z,101276.53
2023-04-16T19:58:08.876Z,101285.88
2023-04-16T20:00:38.200Z,101285.19
2023-04-16T20:03:06.383Z,101293.13
2023-04-16T20:05:34.249Z,101290.34
2023-04-16T20:08:02.252Z,101288.13
2023-04-16T20:10:31.941Z,101295.94
2023-04-16T20:12:59.702Z,101293.41
2023-04-16T20:15:27.508Z,101292.75
2023-04-16T20:17:56.025Z,101296.53
2023-04-16T20:20:24.055Z,101282.31
2023-04-16T20:22:51.842Z,101295.53
2023-04-16T20:25:20.378Z,101288.88
2023-04-16T20:27:49.683Z,101288.88
2023-04-16T20:30:18.102Z,101290.00
2023-04-16T20:32:45.933Z,101291.81
2023-04-16T20:35:13.746Z,101290.16
2023-04-16T20:37:42.952Z,101297.25
2023-04-16T20:40:14.966Z,101298.25
2023-04-16T20:42:46.233Z,101292.44
2023-04-16T20:45:16.283Z,101293.41
2023-04-16T20:47:44.440Z,101293.53
2023-04-16T20:50:12.447Z,101288.38
2023-04-16T20:52:40.163Z,101291.50
2023-04-16T20:55:09.171Z,101289.81
2023-04-16T20:57:36.842Z,101298.88
2023-04-16T21:00:09.137Z,101299.03
2023-04-16T21:02:38.551Z,101299.34
2023-04-16T21:05:08.987Z,101296.97
2023-04-16T21:07:36.847Z,101296.13
2023-04-16T21:10:05.091Z,101298.94
2023-04-16T21:12:32.905Z,101302.00
2023-04-16T21:15:00.702Z,101304.97
2023-04-16T21:17:28.813Z,101310.53
2023-04-16T21:19:58.078Z,101302.88
2023-04-16T21:22:25.939Z,101305.69
2023-04-16T21:24:53.688Z,101307.06
2023-04-16T21:27:21.529Z,101310.97
2023-04-16T21:29:49.292Z,101307.94
2023-04-16T21:32:17.055Z,101311.84
2023-04-16T21:34:44.805Z,101306.16
2023-04-16T21:37:13.918Z,101306.44
2023-04-16T21:39:41.731Z,101309.38
2023-04-16T21:42:09.648Z,101307.97
2023-04-16T21:44:37.490Z,101315.22
2023-04-16T21:47:05.312Z,101318.56
2023-04-16T21:49:33.213Z,101315.13
2023-04-16T21:52:02.484Z,101312.63
2023-04-16T21:54:31.744Z,101310.94
2023-04-16T21:56:59.495Z,101310.09
2023-04-16T21:59:27.330Z,101301.63
2023-04-16T22:01:55.125Z,101302.44
2023-04-16T22:04:26.210Z,101305.25
2023-04-16T22:06:56.198Z,101309.97
2023-04-16T22:09:24.759Z,101310.41
2023-04-16T22:11:53.883Z,101314.72
2023-04-16T22:14:21.642Z,101307.78
2023-04-16T22:16:51.806Z,101312.22
2023-04-16T22:19:19.745Z,101309.97
2023-04-16T22:21:47.878Z,101314.44
2023-04-16T22:24:16.066Z,101320.56
2023-04-16T22:26:43.802Z,101315.44
2023-04-16T22:29:13.198Z,101315.56
2023-04-16T22:31:41.275Z,101314.03
2023-04-16T22:34:09.080Z,101315.97
2023-04-16T22:36:36.807Z,101322.25
2023-04-16T22:39:08.362Z,101318.91
2023-04-16T22:41:36.605Z,101325.31
2023-04-16T22:44:09.463Z,101318.34
2023-04-16T22:46:38.710Z,101319.31
2023-04-16T22:49:06.634Z,101318.66
2023-04-16T22:51:34.413Z,101319.75
2023-04-16T22:54:02.097Z,101318.78
2023-04-16T22:56:31.014Z,101319.03
2023-04-16T22:58:58.715Z,101322.25
2023-04-16T23:01:26.594Z,101323.34
2023-04-16T23:03:55.795Z,101325.03
2023-04-16T23:06:23.583Z,101316.41
2023-04-16T23:08:51.393Z,101321.69
2023-04-16T23:11:19.165Z,101313.63
2023-04-16T23:13:46.918Z,101321.84
2023-04-16T23:16:14.702Z,101321.00
2023-04-16T23:18:42.481Z,101317.66
2023-04-16T23:21:11.563Z,101312.66
2023-04-16T23:23:39.330Z,101320.56
2023-04-16T23:26:07.048Z,101320.72
2023-04-16T23:28:34.793Z,101323.50
2023-04-16T23:31:04.174Z,101323.06
2023-04-16T23:33:33.263Z,101319.47
2023-04-16T23:36:01.085Z,101327.38
2023-04-16T23:38:30.716Z,101321.13
2023-04-16T23:40:58.403Z,101320.28
2023-04-16T23:43:26.296Z,101322.81
2023-04-16T23:45:54.039Z,101322.81
2023-04-16T23:48:21.759Z,101323.66
2023-04-16T23:50:49.562Z,101325.31
2023-04-16T23:53:17.324Z,101321.00
2023-04-16T23:55:46.432Z,101323.66
2023-04-16T23:58:14.180Z,101324.63
